Bishop International Airport
KFNT : now visible

Airfield :











YOU CAN JOIN US ON...

 
LOGIN :

Register | Disclaimer

   EN    FR    IT 

 









Legend :    VFR   Marginal VFR   IFR   Intensive IFR   Very Intensive IFR
Visi :
Ceiling :
>= 8 km
>= 3000ft
5 to 8 km
1000 to 3000 ft
1500m to 5 km
500 to 1000 ft
800 to 1500m
200 to 500 ft
< 800m
< 200 ft
Symbols :   Thunderstorms  Fog  Heavy snow  Heavy precipitations  Wind > 20 kt






- Airport Elevation : 782 ft
- IATA code : FNT


KFNT - Bishop International

CURRENT METAR :
  • 162153Z 07011KT 10SM CLR M01/M09 A3038 RMK AO2 SLP300 T10111089

EXPIRED METARs :
  • 162053Z AUTO 08007KT 10SM CLR 01/M09 A3039 RMK AO2 SLP302 T00061089 56025
  • 161953Z AUTO 08007KT 10SM CLR 01/M10 A3041 RMK AO2 SLP308 T00061100
  • 161853Z 07005KT 10SM CLR 01/M11 A3044 RMK AO2 SLP319 T00061106

TAF KFNT
Valid from the 16 at 18:00 until the 17 at 18:00 UTC


161728Z 1618/1718 07006KT P6SM SCT030 BKN250
FM170800 10003KT P6SM SKC
FM171400 15006KT P6SM BKN250



MET'MAP, your aeronautical weather chart ! - Copyright ORBIFLY December 2007 - Disclaimer

ORBIFLY MET'MAP TEAM :

Programming & Development : Alexandra Zaïnal
Concept & Development : Baudouin d'Aumeries
Co-Development & Prog : Marc-Olivier Méhu
Technical & hardware support : Manuel Goepfert

Contact : metmap@orbifly.com




SOURCES & CREDITS :

   NOAA       Earth
Advisory